createdAt,value
2019-05-16T15:58:10.468Z,950.62
2019-05-16T15:59:09.877Z,838.12
2019-05-16T16:00:39.709Z,916.88
2019-05-16T16:01:39.690Z,916.88
2019-05-16T16:03:10.281Z,905.62
2019-05-16T16:04:10.236Z,900.00
2019-05-16T16:05:42.793Z,888.75
2019-05-16T16:06:43.153Z,877.50
2019-05-16T16:07:40.751Z,883.12
2019-05-16T16:08:40.753Z,883.12
2019-05-16T16:09:40.753Z,888.75
2019-05-16T16:10:40.723Z,900.00
2019-05-16T16:11:40.720Z,883.12
2019-05-16T16:12:40.701Z,877.50
2019-05-16T16:13:40.691Z,866.25
2019-05-16T16:14:40.684Z,866.25
2019-05-16T16:15:50.266Z,877.50
2019-05-16T16:16:41.660Z,888.75
2019-05-16T16:17:40.662Z,888.75
2019-05-16T16:18:40.649Z,883.12
2019-05-16T16:19:40.647Z,877.50
2019-05-16T16:20:40.621Z,866.25
2019-05-16T16:21:40.619Z,849.38
2019-05-16T16:22:40.612Z,832.50
2019-05-16T16:23:40.596Z,781.88
2019-05-16T16:24:40.581Z,736.88
2019-05-16T16:25:40.576Z,742.50
2019-05-16T16:26:40.556Z,731.25
2019-05-16T16:27:40.572Z,725.62
2019-05-16T16:28:40.543Z,720.00
2019-05-16T16:29:40.539Z,714.38
2019-05-16T16:30:40.516Z,703.12
2019-05-16T16:31:40.513Z,691.88
2019-05-16T16:32:40.507Z,680.62
2019-05-16T16:33:40.488Z,669.38
2019-05-16T16:34:40.484Z,658.12
2019-05-16T16:35:40.487Z,641.25
2019-05-16T16:36:40.461Z,624.38
2019-05-16T16:37:40.459Z,607.50
2019-05-16T16:38:40.444Z,596.25
2019-05-16T16:39:40.424Z,573.75
2019-05-16T16:40:40.416Z,568.12
2019-05-16T16:41:40.413Z,556.88
2019-05-16T16:42:40.408Z,540.00
2019-05-16T16:43:40.388Z,528.75
2019-05-16T16:44:40.399Z,517.50
2019-05-16T16:45:40.363Z,483.75
2019-05-16T16:46:40.353Z,500.62
2019-05-16T16:47:40.352Z,495.00
2019-05-16T16:48:40.338Z,483.75
2019-05-16T16:49:40.622Z,483.75
2019-05-16T16:50:40.324Z,472.50
2019-05-16T16:51:40.338Z,461.25
2019-05-16T16:52:40.289Z,444.38
2019-05-16T16:53:40.282Z,421.88
2019-05-16T16:54:40.266Z,421.88
2019-05-16T16:55:40.263Z,399.38
2019-05-16T16:56:40.260Z,399.38
2019-05-16T16:57:40.243Z,393.75
2019-05-16T16:58:40.236Z,388.12
2019-05-16T16:59:40.219Z,382.50
2019-05-16T17:00:40.220Z,365.62
2019-05-16T17:01:40.212Z,320.62
2019-05-16T17:02:40.191Z,303.75
2019-05-16T17:03:40.178Z,292.50
2019-05-16T17:04:40.168Z,337.50
2019-05-16T17:05:40.156Z,365.62
2019-05-16T17:06:40.154Z,343.12
2019-05-16T17:07:40.137Z,348.75
2019-05-16T17:08:40.125Z,343.12
2019-05-16T17:09:40.118Z,337.50
2019-05-16T17:10:40.103Z,331.88
2019-05-16T17:11:40.092Z,326.25
2019-05-16T17:12:42.189Z,320.62
2019-05-16T17:13:40.075Z,320.62
2019-05-16T17:14:40.062Z,309.38
2019-05-16T17:15:42.169Z,309.38
2019-05-16T17:16:40.042Z,303.75
2019-05-16T17:17:40.027Z,303.75
2019-05-16T17:18:40.034Z,303.75
2019-05-16T17:19:40.016Z,298.12
2019-05-16T17:20:40.002Z,270.00
2019-05-16T17:21:40.002Z,219.38
2019-05-16T17:22:39.982Z,202.50
